Time;durP1;ratioP1;P1;durP2;ratioP2;P2;SDS_P1;SDS_P2;PMS_P1;PMS_P2;Temp;Humidity;BMP_temperature;BMP_pressure;BME280_temperature;BME280_humidity;BME280_pressure;Samples;Min_cycle;Max_cycle;Signal;HPM_P1;HPM_P2
2022/03/13 00:00:27;;;;;;;22.67;11.85;;;;;;;-6.49;100.00;101865.70;1740299;82;21068;-83
2022/03/13 00:02:55;;;;;;;19.65;10.90;;;;;;;-6.49;100.00;101864.44;1742891;82;20994;-82
2022/03/13 00:05:23;;;;;;;22.98;11.65;;;;;;;-6.51;100.00;101861.89;1742672;81;21026;-84
2022/03/13 00:07:54;;;;;;;21.48;10.98;;;;;;;-6.52;100.00;101861.84;1742647;82;21076;-84
2022/03/13 00:10:25;;;;;;;20.82;9.88;;;;;;;-6.51;100.00;101861.89;1739689;82;21162;-83
2022/03/13 00:12:54;;;;;;;22.62;11.15;;;;;;;-6.49;100.00;101863.17;1743283;82;21108;-83
2022/03/13 00:15:35;;;;;;;18.42;9.93;;;;;;;-6.46;100.00;101858.16;1743078;81;21581;-85
2022/03/13 00:18:03;;;;;;;25.75;12.93;;;;;;;-6.43;100.00;101863.25;1742632;81;21060;-83
2022/03/13 00:20:33;;;;;;;27.00;13.40;;;;;;;-6.40;100.00;101859.91;1742910;82;21107;-82
2022/03/13 00:23:00;;;;;;;20.95;11.73;;;;;;;-6.41;100.00;101861.60;1744821;79;21246;-86
2022/03/13 00:25:27;;;;;;;18.02;10.28;;;;;;;-6.39;100.00;101855.28;1760926;80;21570;-85
2022/03/13 00:27:55;;;;;;;20.80;10.23;;;;;;;-6.37;100.00;101855.73;1773860;80;21117;-82
2022/03/13 00:30:23;;;;;;;21.05;10.55;;;;;;;-6.37;100.00;101855.73;1773629;80;21025;-83
2022/03/13 00:32:50;;;;;;;20.65;10.68;;;;;;;-6.37;100.00;101861.23;1773934;80;21526;-84
2022/03/13 00:35:21;;;;;;;18.90;9.23;;;;;;;-6.36;100.00;101854.91;1774139;80;21069;-84
2022/03/13 00:37:47;;;;;;;;;;;;;;;-6.34;100.00;101853.26;1776358;80;21001;-84
2022/03/13 00:40:15;;;;;;;22.65;10.45;;;;;;;-6.31;100.00;101863.85;1774019;79;20249;-83
2022/03/13 00:42:43;;;;;;;19.00;11.60;;;;;;;-6.31;100.00;101854.14;1797625;78;21057;-81
2022/03/13 00:45:10;;;;;;;28.73;14.30;;;;;;;-6.33;100.00;101861.73;1811511;78;21117;-83
2022/03/13 00:47:38;;;;;;;27.93;14.15;;;;;;;-6.35;100.00;101854.09;1811428;78;21065;-84
2022/03/13 00:50:06;;;;;;;29.07;14.65;;;;;;;-6.32;100.00;101861.30;1834131;77;21563;-83
2022/03/13 00:52:34;;;;;;;36.65;15.25;;;;;;;-6.31;100.00;101862.59;1853105;77;20982;-83
2022/03/13 00:55:03;;;;;;;41.68;17.60;;;;;;;-6.31;100.00;101866.39;1852800;77;20994;-83
2022/03/13 00:57:30;;;;;;;40.60;18.85;;;;;;;-6.32;100.00;101865.11;1853129;77;21068;-83
2022/03/13 00:59:56;;;;;;;37.75;18.30;;;;;;;-6.34;100.00;101862.56;1853085;77;21117;-84
2022/03/13 01:02:23;;;;;;;32.58;17.55;;;;;;;-6.39;100.00;101863.76;1853194;77;20990;-83
2022/03/13 01:04:54;;;;;;;38.17;18.60;;;;;;;-6.47;100.00;101867.85;1852555;77;21021;-85
2022/03/13 01:07:21;;;;;;;35.05;18.25;;;;;;;-6.55;100.00;101861.81;1852749;77;21061;-83
2022/03/13 01:09:47;;;;;;;44.50;23.40;;;;;;;-6.64;100.00;101872.63;1852838;77;21002;-82
2022/03/13 01:12:16;;;;;;;42.38;22.50;;;;;;;-6.72;100.00;101869.12;1852916;77;21010;-84
2022/03/13 01:14:45;;;;;;;50.45;24.82;;;;;;;-6.79;100.00;101873.25;1853114;77;22600;-82
2022/03/13 01:17:18;;;;;;;51.00;25.05;;;;;;;-6.89;100.00;101876.44;1853276;77;21104;-83
2022/03/13 01:19:47;;;;;;;47.15;22.32;;;;;;;-7.02;100.00;101882.58;1846239;77;21009;-83
2022/03/13 01:22:15;;;;;;;43.50;20.10;;;;;;;-7.07;100.00;101882.88;1793253;77;21578;-84
2022/03/13 01:24:47;;;;;;;33.80;16.45;;;;;;;-7.08;100.00;101882.44;1853073;77;21271;-85
2022/03/13 01:27:15;;;;;;;29.42;14.03;;;;;;;-7.05;100.00;101881.67;1852015;77;20974;-84
2022/03/13 01:29:43;;;;;;;25.25;13.15;;;;;;;-7.05;100.00;101883.77;1853350;77;20986;-83
2022/03/13 01:32:14;;;;;;;23.13;11.67;;;;;;;-7.03;100.00;101884.66;1853112;77;21495;-83
2022/03/13 01:34:51;;;;;;;22.85;11.68;;;;;;;-7.02;100.00;101887.64;1833951;77;20990;-83
2022/03/13 01:37:37;;;;;;;18.73;9.50;;;;;;;-7.02;100.00;101887.64;1826402;77;21094;-83
2022/03/13 01:40:11;;;;;;;21.82;10.13;;;;;;;-7.01;100.00;101888.05;1802526;77;21032;-83
2022/03/13 01:42:40;;;;;;;17.45;9.03;;;;;;;-7.01;100.00;101888.05;1785830;79;21576;-83
2022/03/13 01:45:12;;;;;;;17.57;9.83;;;;;;;-7.02;100.00;101893.97;1798652;79;21014;-83
2022/03/13 01:47:39;;;;;;;17.00;8.83;;;;;;;-7.06;100.00;101892.19;1798969;79;21069;-84
2022/03/13 01:50:09;;;;;;;15.78;7.78;;;;;;;-7.08;100.00;101891.30;1798516;79;21031;-83
2022/03/13 01:52:41;;;;;;;14.07;7.78;;;;;;;-7.10;100.00;101896.77;1803978;79;21074;-83
2022/03/13 01:55:08;;;;;;;15.05;7.72;;;;;;;-7.10;100.00;101892.10;1808959;79;21025;-84
2022/03/13 01:57:38;;;;;;;13.13;7.28;;;;;;;-7.16;100.00;101898.77;1809743;79;21002;-85
2022/03/13 02:00:09;;;;;;;14.53;7.50;;;;;;;-7.19;100.00;101901.66;1809800;79;21025;-84
2022/03/13 02:02:58;;;;;;;14.47;7.85;;;;;;;-7.25;100.00;101899.02;1808320;79;21238;-83
2022/03/13 02:05:35;;;;;;;25.97;8.80;;;;;;;-7.34;100.00;101899.67;1803718;79;21124;-84
2022/03/13 02:08:20;;;;;;;14.80;7.58;;;;;;;-7.43;100.00;101899.48;1790120;79;21542;-85
2022/03/13 02:10:50;;;;;;;16.32;8.63;;;;;;;-7.52;100.00;101899.74;1747078;80;21516;-86
2022/03/13 02:13:20;;;;;;;13.45;7.17;;;;;;;-7.61;100.00;101900.42;1776239;79;21345;-88
2022/03/13 02:15:48;;;;;;;17.42;7.92;;;;;;;-7.70;100.00;101901.91;1776586;80;21120;-85
2022/03/13 02:18:18;;;;;;;16.37;7.97;;;;;;;-7.78;100.00;101908.06;1776497;80;21538;-85
2022/03/13 02:20:46;;;;;;;14.90;7.40;;;;;;;-7.80;100.00;101911.83;1776505;80;21092;-84
2022/03/13 02:23:24;;;;;;;12.93;7.50;;;;;;;-7.80;100.00;101908.43;1776562;80;21167;-84
2022/03/13 02:25:57;;;;;;;16.27;8.05;;;;;;;-7.79;100.00;101912.28;1779022;79;21756;-85
2022/03/13 02:28:31;;;;;;;17.45;8.63;;;;;;;-7.80;100.00;101910.56;1803887;79;22017;-84
2022/03/13 02:31:06;;;;;;;14.93;8.15;;;;;;;-7.83;100.00;101913.02;1748784;81;21610;-83
2022/03/13 02:33:33;;;;;;;17.05;8.43;;;;;;;-7.86;100.00;101917.16;1767372;81;21113;-87
2022/03/13 02:36:34;;;;;;;15.93;8.98;;;;;;;-7.95;100.00;101912.76;1802026;79;21049;-88
2022/03/13 02:39:06;;;;;;;20.57;9.13;;;;;;;-8.06;100.00;101915.45;1740085;81;21053;-84
2022/03/13 02:41:34;;;;;;;20.43;9.03;;;;;;;-8.21;100.00;101912.17;1759852;80;21831;-82
2022/03/13 02:44:02;;;;;;;17.57;7.97;;;;;;;-8.35;100.00;101916.47;1733968;80;21101;-84
2022/03/13 02:46:52;;;;;;;19.15;9.05;;;;;;;-8.52;100.00;101920.28;1777008;80;21084;-87
2022/03/13 02:49:22;;;;;;;18.65;8.40;;;;;;;-8.62;100.00;101930.58;1743489;82;21972;-83
2022/03/13 02:51:52;;;;;;;16.70;8.23;;;;;;;-8.72;100.00;101932.86;1780958;80;21020;-83
2022/03/13 02:54:20;;;;;;;17.02;6.83;;;;;;;-8.80;100.00;101933.50;1743673;82;21237;-84
2022/03/13 02:56:48;;;;;;;17.70;8.83;;;;;;;-8.81;100.00;101935.14;1781441;79;20989;-84
2022/03/13 02:59:15;;;;;;;18.07;8.25;;;;;;;-8.77;100.00;101937.38;1743592;82;21152;-84
2022/03/13 03:01:42;;;;;;;18.87;8.60;;;;;;;-8.73;100.00;101946.30;1781524;80;21091;-84
2022/03/13 03:04:11;;;;;;;18.10;9.18;;;;;;;-8.68;100.00;101948.95;1761946;80;21036;-83
2022/03/13 03:06:43;;;;;;;16.67;7.53;;;;;;;-8.63;100.00;101946.16;1814811;78;21237;-85
2022/03/13 03:09:12;;;;;;;14.18;7.40;;;;;;;-8.57;100.00;101950.48;1764515;80;21003;-83
2022/03/13 03:11:39;;;;;;;15.63;8.00;;;;;;;-8.51;100.00;101957.38;1745675;80;21046;-86
2022/03/13 03:14:06;;;;;;;15.50;7.70;;;;;;;-8.44;100.00;101962.98;1771022;80;21079;-83
2022/03/13 03:16:34;;;;;;;18.95;7.58;;;;;;;-8.37;100.00;101966.11;1744946;80;21031;-83
2022/03/13 03:19:02;;;;;;;18.02;8.73;;;;;;;-8.29;100.00;101971.37;1739157;82;21172;-83
2022/03/13 03:21:31;;;;;;;18.15;8.48;;;;;;;-8.22;100.00;101971.12;1775945;79;21022;-84
2022/03/13 03:24:03;;;;;;;16.07;7.62;;;;;;;-8.16;100.00;101977.58;1748772;80;21054;-84
2022/03/13 03:26:38;;;;;;;12.80;7.65;;;;;;;-8.19;100.00;101980.89;1762883;80;21204;31
2022/03/13 03:29:05;;;;;;;17.05;9.15;;;;;;;-8.21;100.00;101982.95;1686816;83;21030;-83
2022/03/13 03:31:42;;;;;;;26.17;10.93;;;;;;;-8.22;100.00;101981.23;1676955;83;21865;-84
2022/03/13 03:34:15;;;;;;;43.45;19.65;;;;;;;-8.21;100.00;101982.95;1695314;81;21041;-83
2022/03/13 03:36:54;;;;;;;42.30;20.08;;;;;;;-8.20;100.00;101979.58;1704775;81;21055;-84
2022/03/13 03:39:24;;;;;;;29.87;13.90;;;;;;;-8.20;100.00;101979.19;1739395;80;21061;-86
2022/03/13 03:41:54;;;;;;;26.17;11.63;;;;;;;-8.17;100.00;101980.92;1754841;80;21722;-87
2022/03/13 03:44:23;;;;;;;19.27;10.13;;;;;;;-8.16;100.00;101982.64;1755245;80;22692;-85
2022/03/13 03:46:52;;;;;;;20.82;9.33;;;;;;;-8.13;100.00;101983.98;1762273;78;21142;-84
2022/03/13 03:49:19;;;;;;;21.05;10.18;;;;;;;-8.12;100.00;101985.28;1759130;79;21049;-85
2022/03/13 03:51:50;;;;;;;25.88;13.25;;;;;;;-8.10;100.00;101986.57;1746104;81;21049;-82
2022/03/13 03:54:17;;;;;;;29.18;15.53;;;;;;;-8.09;100.00;101986.59;1719776;80;21507;-83
2022/03/13 03:56:45;;;;;;;27.48;14.73;;;;;;;-8.06;100.00;101986.23;1756072;80;21123;-82
2022/03/13 03:59:12;;;;;;;30.00;14.45;;;;;;;-8.04;100.00;101994.72;1756225;80;21372;-82
2022/03/13 04:01:43;;;;;;;23.57;11.68;;;;;;;-8.02;100.00;101990.56;1745963;82;21489;-82
2022/03/13 04:04:11;;;;;;;;;;;;;;;-8.00;100.00;101994.83;1748344;82;21968;-82
2022/03/13 04:06:39;;;;;;;27.22;12.00;;;;;;;-7.99;100.00;101996.55;1747381;80;20225;-82
2022/03/13 04:09:08;;;;;;;22.30;11.65;;;;;;;-7.96;100.00;102000.81;1756536;80;21833;-84
2022/03/13 04:11:38;;;;;;;24.20;11.15;;;;;;;-7.95;100.00;102003.37;1756449;81;21011;-84
2022/03/13 04:14:09;;;;;;;22.40;10.95;;;;;;;-7.93;100.00;102004.27;1727209;81;21064;-82
2022/03/13 04:16:36;;;;;;;17.48;8.95;;;;;;;-7.89;100.00;102003.09;1715210;81;21762;-82
2022/03/13 04:19:09;;;;;;;16.02;9.43;;;;;;;-7.87;100.00;102010.28;1695408;83;21109;-82
2022/03/13 04:21:40;;;;;;;20.00;9.55;;;;;;;-7.83;100.00;102012.08;1692292;82;21190;-83
2022/03/13 04:24:08;;;;;;;23.20;11.57;;;;;;;-7.79;100.00;102021.04;1714648;81;21057;-83
2022/03/13 04:26:39;;;;;;;23.80;11.43;;;;;;;-7.77;100.00;102020.64;1752926;80;21061;-84
2022/03/13 04:46:50;;;;;;;24.57;13.08;;;;;;;-7.29;100.00;102041.13;1832578;77;22873;-86
2022/03/13 04:49:18;;;;;;;25.60;13.20;;;;;;;-7.22;100.00;102042.09;1780572;79;21033;-88
2022/03/13 04:51:47;;;;;;;27.50;12.45;;;;;;;-7.13;100.00;102047.36;1798094;78;21211;-87
2022/03/13 04:54:14;;;;;;;22.42;10.58;;;;;;;-7.05;100.00;102049.64;1795631;78;20980;-87
2022/03/13 04:56:42;;;;;;;22.90;11.80;;;;;;;-6.95;100.00;102046.04;1798135;78;21040;-88
2022/03/13 04:59:09;;;;;;;20.62;9.78;;;;;;;-6.86;100.00;102047.50;1770324;79;21010;-85
2022/03/13 05:01:37;;;;;;;18.07;9.23;;;;;;;-6.78;100.00;102048.51;1787568;78;21058;-86
2022/03/13 05:04:06;;;;;;;16.30;8.93;;;;;;;-6.70;100.00;102050.78;1796834;79;21563;-84
2022/03/13 05:06:36;;;;;;;21.62;10.85;;;;;;;-6.60;100.00;102054.34;1797752;79;21069;-84
2022/03/13 05:09:05;;;;;;;25.20;11.03;;;;;;;-6.51;100.00;102057.05;1798544;78;21031;-84
2022/03/13 05:11:35;;;;;;;18.60;10.03;;;;;;;-6.44;100.00;102055.89;1783130;79;21109;-86
2022/03/13 05:14:03;;;;;;;19.45;10.43;;;;;;;-6.38;100.00;102060.67;1797615;78;21086;-84
2022/03/13 05:16:31;;;;;;;20.68;11.18;;;;;;;-6.33;100.00;102054.42;1793135;79;21086;-84
2022/03/13 05:19:00;;;;;;;21.12;10.98;;;;;;;-6.30;100.00;102058.25;1797457;78;21051;-83
2022/03/13 05:21:30;;;;;;;19.02;10.35;;;;;;;-6.26;100.00;102055.36;1796683;78;21081;-87
2022/03/13 05:23:57;;;;;;;22.42;11.50;;;;;;;-6.25;100.00;102062.98;1780525;79;20997;-87
2022/03/13 05:26:28;;;;;;;17.75;9.30;;;;;;;-6.24;100.00;102062.59;1797475;78;21017;-86
2022/03/13 05:28:56;;;;;;;17.45;8.93;;;;;;;-6.24;100.00;102067.66;1797783;79;21242;-84
2022/03/13 05:31:24;;;;;;;17.48;8.15;;;;;;;-6.22;100.00;102069.81;1797624;78;21059;-85
2022/03/13 05:33:52;;;;;;;19.57;7.60;;;;;;;-6.22;100.00;102065.59;1796824;78;21518;-84
2022/03/13 05:36:20;;;;;;;13.60;7.37;;;;;;;-6.19;100.00;102066.05;1788041;78;21070;-83
2022/03/13 05:38:48;;;;;;;20.30;8.45;;;;;;;-6.15;100.00;102067.83;1779043;79;20952;-85
2022/03/13 05:41:18;;;;;;;14.23;6.78;;;;;;;-6.11;100.00;102069.58;1795010;79;21195;-85
2022/03/13 05:43:49;;;;;;;13.48;6.83;;;;;;;-6.07;100.00;102075.55;1797903;79;21028;-84
2022/03/13 05:46:16;;;;;;;9.95;5.60;;;;;;;-6.01;100.00;102075.69;1790755;78;21040;-86
2022/03/13 05:48:44;;;;;;;14.78;6.47;;;;;;;-5.93;100.00;102082.11;1788808;78;21070;-86
2022/03/13 05:51:11;;;;;;;13.45;5.83;;;;;;;-5.86;100.00;102085.19;1788189;78;21000;-85
2022/03/13 05:53:38;;;;;;;11.48;6.10;;;;;;;-5.78;100.00;102084.89;1789781;78;21294;-86
2022/03/13 05:56:05;;;;;;;13.40;6.20;;;;;;;-5.71;100.00;102085.44;1784553;78;21028;-84
2022/03/13 05:58:33;;;;;;;10.35;5.45;;;;;;;-5.63;100.00;102091.05;1785750;79;21058;-85
2022/03/13 06:01:05;;;;;;;13.58;5.45;;;;;;;-5.56;100.00;102086.50;1760044;80;20987;-85
2022/03/13 06:03:33;;;;;;;10.45;6.08;;;;;;;-5.45;100.00;102087.53;1789024;78;21089;-86
2022/03/13 06:06:02;;;;;;;10.82;5.65;;;;;;;-5.36;100.00;102089.34;1766136;78;21784;-84
2022/03/13 06:08:34;;;;;;;8.23;4.80;;;;;;;-5.25;100.00;102084.44;1770169;80;25662;-87
2022/03/13 06:11:03;;;;;;;11.35;6.12;;;;;;;-5.13;100.00;102091.37;1788295;78;21034;-84
2022/03/13 06:13:31;;;;;;;10.38;5.67;;;;;;;-5.01;100.00;102090.26;1787041;78;21003;-85
2022/03/13 06:15:58;;;;;;;16.48;6.33;;;;;;;-4.88;100.00;102088.73;1788365;78;21049;-83
2022/03/13 06:18:28;;;;;;;11.78;6.08;;;;;;;-4.72;100.00;102096.55;1785975;78;23101;-84
2022/03/13 06:20:59;;;;;;;10.00;6.28;;;;;;;-4.60;100.00;102092.47;1782915;78;21078;-87
2022/03/13 06:23:36;;;;;;;10.68;6.47;;;;;;;-4.47;100.00;102095.13;1765734;79;21014;-87
2022/03/13 06:26:05;;;;;;;21.33;6.08;;;;;;;-4.37;100.00;102101.20;1785831;78;21084;-84
2022/03/13 06:28:37;;;;;;;20.97;7.10;;;;;;;-4.09;100.00;102101.47;1783503;78;21049;-84
2022/03/13 06:31:05;;;;;;;15.45;6.20;;;;;;;-3.31;100.00;102102.95;1783712;80;21303;-83
2022/03/13 06:33:40;;;;;;;14.85;8.43;;;;;;;-2.66;100.00;102097.75;1786717;78;21041;-86
2022/03/13 06:36:11;;;;;;;10.82;6.60;;;;;;;-2.20;100.00;102108.52;1781390;78;21061;-86
2022/03/13 06:38:39;;;;;;;11.83;6.62;;;;;;;-2.14;100.00;102111.52;1784323;78;21037;-85
2022/03/13 06:41:06;;;;;;;8.73;5.72;;;;;;;-2.29;100.00;102113.60;1785875;78;21512;-84
2022/03/13 06:43:34;;;;;;;9.00;5.62;;;;;;;-2.42;100.00;102113.58;1769485;79;21086;-85
2022/03/13 06:46:39;;;;;;;;;;;;;;;;;;;;;
2022/03/13 06:49:12;;;;;;;8.40;5.30;;;;;;;-2.59;100.00;102107.13;1738309;78;20996;-85
2022/03/13 06:51:40;;;;;;;18.27;10.25;;;;;;;-2.58;100.00;102118.20;1788973;78;21071;-84
2022/03/13 06:54:23;;;;;;;17.35;7.85;;;;;;;-2.58;100.00;102115.65;1791324;78;21072;-85
2022/03/13 06:56:48;;;;;;;12.33;6.45;;;;;;;-2.29;100.00;102126.36;1756910;80;21208;-84
2022/03/13 06:59:15;;;;;;;64.05;9.30;;;;;;;-2.03;100.00;102122.58;1763694;80;21064;-83
2022/03/13 07:01:42;;;;;;;74.55;10.63;;;;;;;-1.75;100.00;102126.45;1773133;80;21051;-90
2022/03/13 07:04:12;;;;;;;10.25;5.12;;;;;;;-1.37;100.00;102124.75;1771917;80;21056;-87
2022/03/13 07:06:39;;;;;;;29.55;5.70;;;;;;;-1.17;100.00;102128.12;1747620;79;21041;-89
2022/03/13 07:09:10;;;;;;;12.03;5.40;;;;;;;-1.26;100.00;102129.41;1768089;78;21066;-88
2022/03/13 07:11:39;;;;;;;9.90;4.33;;;;;;;-1.32;100.00;102138.36;1785471;80;21032;-89
2022/03/13 07:14:07;;;;;;;7.20;4.58;;;;;;;-1.36;100.00;102135.41;1786535;78;21045;-91
2022/03/13 07:16:34;;;;;;;9.68;4.55;;;;;;;-1.42;100.00;102136.25;1788612;77;21048;-90
2022/03/13 07:19:02;;;;;;;15.38;5.17;;;;;;;-1.48;100.00;102140.06;1788738;78;21107;-88
2022/03/13 07:21:30;;;;;;;21.37;4.90;;;;;;;-1.59;100.00;102133.28;1781636;78;21234;-90
2022/03/13 07:23:59;;;;;;;14.43;4.53;;;;;;;-1.66;100.00;102144.34;1777477;77;21017;-90
2022/03/13 07:26:26;;;;;;;6.20;4.12;;;;;;;-1.67;100.00;102142.64;1785477;78;21038;-91
2022/03/13 07:28:53;;;;;;;10.85;4.22;;;;;;;-1.62;100.00;102147.75;1789288;78;21034;-91
2022/03/13 07:31:20;;;;;;;9.48;4.00;;;;;;;-1.59;100.00;102151.16;1789470;78;21449;-90
2022/03/13 07:33:47;;;;;;;8.23;4.28;;;;;;;-1.59;100.00;102150.29;1789521;78;21946;-91
2022/03/13 07:36:13;;;;;;;6.80;4.30;;;;;;;-1.58;100.00;102154.55;1770582;78;21661;-91
2022/03/13 07:38:41;;;;;;;8.85;4.53;;;;;;;-1.62;100.00;102157.53;1759185;80;21089;-95
2022/03/13 07:41:08;;;;;;;7.28;3.95;;;;;;;-1.60;100.00;102161.36;1758558;78;21621;-90
2022/03/13 07:43:35;;;;;;;6.42;3.98;;;;;;;-1.57;100.00;102167.76;1759842;80;21609;-90
2022/03/13 07:46:01;;;;;;;9.63;4.17;;;;;;;-1.54;100.00;102160.52;1758150;80;21760;-91
2022/03/13 07:48:29;;;;;;;7.40;3.80;;;;;;;-1.50;100.00;102166.91;1769244;78;22010;-93
2022/03/13 07:50:57;;;;;;;10.95;4.22;;;;;;;-1.44;100.00;102173.73;1788573;78;21626;-93
2022/03/13 07:53:27;;;;;;;9.75;5.12;;;;;;;-1.37;100.00;102165.20;1789021;78;21690;-92
2022/03/13 07:55:55;;;;;;;10.08;4.25;;;;;;;-1.30;100.00;102170.73;1787060;80;20994;-93
2022/03/13 07:58:22;;;;;;;13.08;5.28;;;;;;;-1.19;100.00;102170.72;1752231;78;21242;-94
2022/03/13 08:00:50;;;;;;;9.68;4.60;;;;;;;-1.12;100.00;102164.74;1785891;78;21040;-93
2022/03/13 08:03:35;;;;;;;6.95;3.85;;;;;;;-1.03;100.00;102165.17;1786812;78;21073;-96
2022/03/13 08:05:45;;;;;;;10.10;4.20;;;;;;;-1.01;100.00;102166.03;1760858;79;21487;-92
2022/03/13 08:08:12;;;;;;;9.13;4.15;;;;;;;-0.93;100.00;102167.72;1757452;80;21030;-93
2022/03/13 08:10:40;;;;;;;5.97;3.35;;;;;;;-0.83;100.00;102165.54;1757384;80;21211;-92
2022/03/13 08:13:08;;;;;;;15.65;4.92;;;;;;;-0.73;100.00;102170.23;1769253;79;21036;-93
2022/03/13 08:15:36;;;;;;;7.92;4.30;;;;;;;-0.66;100.00;102174.02;1804791;78;21566;-91
2022/03/13 08:18:03;;;;;;;10.95;5.65;;;;;;;-0.60;100.00;102169.77;1784533;78;21025;-93
2022/03/13 08:20:30;;;;;;;16.85;8.50;;;;;;;-0.51;100.00;102165.86;1804722;78;21463;-94
2022/03/13 08:22:56;;;;;;;9.88;5.00;;;;;;;-0.41;100.00;102174.38;1794664;77;21964;-91
2022/03/13 08:25:25;;;;;;;7.22;4.80;;;;;;;-0.34;98.69;102173.05;1779220;79;20993;-95
2022/03/13 08:27:52;;;;;;;6.60;4.12;;;;;;;-0.24;99.45;102174.29;1779261;80;21592;-92
2022/03/13 08:30:19;;;;;;;8.48;4.60;;;;;;;-0.14;100.00;102173.80;1779258;79;20997;-93
2022/03/13 08:32:46;;;;;;;7.17;3.98;;;;;;;-0.05;100.00;102177.59;1779513;80;21061;-91
2022/03/13 08:35:15;;;;;;;9.58;4.35;;;;;;;0.05;100.00;102183.09;1779186;79;21421;-92
2022/03/13 08:37:43;;;;;;;8.10;3.87;;;;;;;0.11;95.43;102187.34;1789644;78;21053;-93
2022/03/13 08:40:13;;;;;;;7.47;3.55;;;;;;;0.11;93.98;102187.34;1780510;78;21073;-94
2022/03/13 08:42:40;;;;;;;8.53;3.37;;;;;;;0.14;87.20;102190.73;1777333;79;21065;-92
2022/03/13 08:45:11;;;;;;;7.83;3.55;;;;;;;0.21;86.60;102193.25;1782651;79;21018;-91
2022/03/13 08:47:40;;;;;;;7.83;3.60;;;;;;;0.26;82.35;102196.20;1785013;79;21061;-90
2022/03/13 08:50:10;;;;;;;5.27;3.90;;;;;;;0.29;83.70;102191.05;1790774;79;21029;-92
2022/03/13 08:52:38;;;;;;;9.23;3.05;;;;;;;0.36;78.63;102196.16;1808479;77;21099;-91
2022/03/13 08:55:08;;;;;;;8.30;3.60;;;;;;;0.39;77.47;102197.39;1808902;78;21033;-91
2022/03/13 08:57:37;;;;;;;7.55;3.75;;;;;;;0.47;83.18;102195.63;1788111;79;21059;-90
2022/03/13 09:00:05;;;;;;;6.87;4.00;;;;;;;0.56;81.00;102195.56;1788372;78;21126;-91
2022/03/13 09:02:32;;;;;;;7.08;3.47;;;;;;;0.59;77.11;102191.70;1788322;80;21055;-91
2022/03/13 09:05:00;;;;;;;5.83;3.83;;;;;;;0.61;76.06;102199.37;1788597;78;20992;-92
2022/03/13 09:07:26;;;;;;;7.53;3.90;;;;;;;0.62;74.20;102194.22;1787980;79;20984;-91
2022/03/13 09:09:53;;;;;;;6.70;3.80;;;;;;;0.67;79.10;102193.34;1787442;79;21522;-91
2022/03/13 09:12:20;;;;;;;4.75;3.40;;;;;;;0.75;80.83;102196.25;1788527;78;21213;-93
2022/03/13 09:14:48;;;;;;;10.35;4.00;;;;;;;0.83;75.33;102194.92;1788335;78;21038;-91
2022/03/13 09:17:17;;;;;;;5.75;3.60;;;;;;;0.83;72.57;102195.33;1786076;80;20978;-91
2022/03/13 09:19:45;;;;;;;8.03;3.77;;;;;;;0.84;71.91;102204.28;1788494;78;20949;-91
2022/03/13 09:22:21;;;;;;;7.10;4.03;;;;;;;0.81;73.34;102200.48;1816932;77;21043;-94
2022/03/13 09:24:50;;;;;;;6.87;4.20;;;;;;;0.82;74.03;102198.34;1806871;79;21108;-91
2022/03/13 09:27:17;;;;;;;7.25;4.30;;;;;;;0.78;69.93;102197.94;1815780;77;21048;-90
2022/03/13 09:29:44;;;;;;;6.33;4.05;;;;;;;0.75;68.22;102195.41;1816983;77;21036;-92
2022/03/13 09:32:11;;;;;;;6.67;4.22;;;;;;;0.70;67.37;102196.73;1816124;77;21029;-92
2022/03/13 09:34:38;;;;;;;8.60;4.30;;;;;;;0.68;67.15;102204.03;1817235;77;21036;-90
2022/03/13 09:37:05;;;;;;;5.97;3.77;;;;;;;0.73;67.19;102199.70;1817087;77;21771;-90
2022/03/13 09:39:31;;;;;;;8.00;3.65;;;;;;;0.82;69.85;102198.34;1816967;79;21023;-89
2022/03/13 09:42:03;;;;;;;7.08;4.28;;;;;;;0.96;73.01;102194.79;1817109;78;21626;-90
2022/03/13 09:44:29;;;;;;;5.15;3.52;;;;;;;1.06;70.93;102191.28;1816741;77;21043;-89
2022/03/13 09:46:56;;;;;;;6.72;4.28;;;;;;;1.07;69.96;102187.41;1815603;77;21272;-89
2022/03/13 09:49:24;;;;;;;4.55;3.50;;;;;;;1.15;69.17;102191.61;1788594;79;21265;-90
2022/03/13 09:51:51;;;;;;;6.08;3.60;;;;;;;1.17;69.61;102195.85;1794934;77;21308;-89
2022/03/13 09:54:18;;;;;;;5.97;3.25;;;;;;;1.23;69.28;102199.66;1809208;77;21014;-90
2022/03/13 09:56:45;;;;;;;5.87;3.22;;;;;;;1.29;65.76;102197.88;1804517;77;21061;-90
2022/03/13 09:59:12;;;;;;;6.35;4.20;;;;;;;1.31;67.79;102196.16;1796749;79;21607;-90
2022/03/13 10:01:40;;;;;;;7.42;3.70;;;;;;;1.39;65.82;102196.92;1789911;79;21246;-90
2022/03/13 10:04:07;;;;;;;7.50;4.15;;;;;;;1.38;59.90;102190.09;1795462;77;21507;-89
2022/03/13 10:07:02;;;;;;;5.92;4.00;;;;;;;1.36;57.33;102187.96;1789883;78;21036;-90
2022/03/13 10:09:30;;;;;;;7.70;4.00;;;;;;;1.32;57.99;102204.28;1758108;79;21053;-90
2022/03/13 10:12:10;;;;;;;7.17;4.47;;;;;;;1.27;57.87;102201.76;1808253;78;21561;-89
2022/03/13 10:15:03;;;;;;;7.30;3.95;;;;;;;1.31;58.64;102208.99;1771555;79;21259;-90
2022/03/13 10:17:38;;;;;;;8.45;4.00;;;;;;;1.36;57.99;102208.50;1773598;79;21144;-90
2022/03/13 10:20:26;;;;;;;6.60;3.85;;;;;;;1.42;58.89;102209.70;1780403;78;21010;-90
2022/03/13 10:23:10;;;;;;;8.20;5.30;;;;;;;1.43;60.73;102215.70;1762042;79;21085;-90
2022/03/13 10:25:39;;;;;;;9.88;4.75;;;;;;;1.50;61.50;102207.90;1754587;79;21078;-91
2022/03/13 10:28:24;;;;;;;9.70;5.00;;;;;;;1.53;57.77;102205.73;1747554;80;21547;-90
2022/03/13 10:31:06;;;;;;;9.30;4.78;;;;;;;1.53;57.71;102205.73;1770376;79;21033;-89
2022/03/13 10:33:52;;;;;;;7.87;4.92;;;;;;;1.57;61.46;102205.67;1765620;79;21578;-90
2022/03/13 10:36:25;;;;;;;8.48;4.90;;;;;;;1.64;60.71;102208.20;1744098;80;21345;-90
2022/03/13 10:38:53;;;;;;;7.53;4.25;;;;;;;1.69;61.58;102209.81;1735898;82;20959;-91
2022/03/13 10:41:21;;;;;;;8.50;4.67;;;;;;;1.77;60.64;102200.73;1711617;82;21253;-91
2022/03/13 10:43:56;;;;;;;13.03;4.55;;;;;;;1.84;59.30;102204.09;1758918;79;20994;-91
2022/03/13 10:46:32;;;;;;;8.70;4.55;;;;;;;1.87;60.58;102204.90;1752798;80;21492;-90
2022/03/13 10:49:00;;;;;;;10.10;5.45;;;;;;;1.93;59.21;102192.83;1765375;80;21054;-91
2022/03/13 10:51:46;;;;;;;12.00;6.00;;;;;;;1.96;58.59;102201.34;1790884;78;21024;-91
2022/03/13 10:54:36;;;;;;;9.88;5.42;;;;;;;1.93;54.35;102207.80;1773220;79;21214;-90
2022/03/13 10:57:13;;;;;;;27.75;5.95;;;;;;;1.93;54.35;102207.80;1798585;77;21747;-90
2022/03/13 10:59:43;;;;;;;12.25;5.65;;;;;;;1.99;79.42;102201.73;1791624;77;21529;-89
2022/03/13 11:02:18;;;;;;;23.70;6.83;;;;;;;2.28;80.55;102203.05;1778732;79;21689;-88
2022/03/13 11:04:52;;;;;;;10.70;5.40;;;;;;;2.41;68.37;102202.41;1783084;79;21056;-90
2022/03/13 11:07:21;;;;;;;17.10;5.92;;;;;;;2.46;64.65;102200.18;1815367;79;21974;-89
2022/03/13 11:09:49;;;;;;;8.88;4.67;;;;;;;2.46;61.19;102199.34;1813591;78;21064;-90
2022/03/13 11:12:22;;;;;;;16.65;5.55;;;;;;;2.39;59.74;102199.87;1775316;80;21062;-90
2022/03/13 11:14:55;;;;;;;12.53;5.70;;;;;;;2.32;60.26;102200.39;1788680;79;21101;-90
2022/03/13 11:17:30;;;;;;;13.08;5.45;;;;;;;2.33;59.84;102201.25;1775035;80;21026;-88
2022/03/13 11:19:59;;;;;;;9.73;5.75;;;;;;;2.34;59.38;102199.09;1773976;79;21489;-88
2022/03/13 11:22:29;;;;;;;13.13;5.90;;;;;;;2.36;57.80;102205.91;1758339;79;21034;-89
2022/03/13 11:25:02;;;;;;;11.33;5.62;;;;;;;2.35;57.25;102209.80;1787385;79;21859;-88
2022/03/13 11:27:36;;;;;;;22.00;6.28;;;;;;;2.31;59.92;102205.14;1787807;79;21776;-88
2022/03/13 11:30:10;;;;;;;10.38;4.85;;;;;;;2.31;59.92;102205.14;1730752;81;21046;-89
2022/03/13 11:33:03;;;;;;;;;;;;;;;;;;;;;
2022/03/13 11:35:40;;;;;;;15.23;6.00;;;;;;;2.39;58.99;102207.58;1753008;77;21107;-87
2022/03/13 11:38:18;;;;;;;15.58;5.85;;;;;;;2.43;58.22;102209.25;1813735;77;21596;-88
2022/03/13 11:40:45;;;;;;;10.55;6.00;;;;;;;2.41;56.39;102203.27;1816580;77;21009;-87
2022/03/13 11:43:19;;;;;;;10.53;6.35;;;;;;;2.37;56.47;102205.46;1795717;77;20994;-87
2022/03/13 11:46:00;;;;;;;9.60;5.72;;;;;;;2.34;57.02;102207.64;1816971;77;21147;-87
2022/03/13 11:48:37;;;;;;;17.50;10.75;;;;;;;2.34;55.63;102210.22;1812209;77;21089;-87